createdAt,value
2023-04-02T00:01:55.776Z,68.95605
2023-04-02T00:03:55.817Z,69.0791
2023-04-02T00:05:55.723Z,68.71387
2023-04-02T00:07:55.787Z,68.66895
2023-04-02T00:09:55.727Z,68.83594
2023-04-02T00:12:49.540Z,68.90332
2023-04-02T00:14:49.509Z,68.89258
2023-04-02T00:16:49.576Z,69.39355
2023-04-02T00:18:49.556Z,69.27441
2023-04-02T00:20:49.494Z,69.13574
2023-04-02T00:22:49.529Z,68.56738
2023-04-02T00:24:49.599Z,69.23828
2023-04-02T00:26:49.534Z,69.47949
2023-04-02T00:28:09.140Z,69.70313
2023-04-02T00:30:09.174Z,69.57715
2023-04-02T00:32:09.248Z,69.57715
2023-04-02T00:34:09.196Z,69.82227
2023-04-02T00:36:09.279Z,69.78516
2023-04-02T00:38:09.164Z,70.06055
2023-04-02T00:40:09.172Z,70.51465
2023-04-02T00:43:56.535Z,69.83008
2023-04-02T00:45:56.752Z,70.26953
2023-04-02T00:47:56.771Z,69.90723
2023-04-02T00:49:56.479Z,70.11816
2023-04-02T00:51:56.478Z,69.6416
2023-04-02T00:53:56.536Z,70.87598
2023-04-02T00:55:56.544Z,72.69629
2023-04-02T00:58:51.543Z,72.16113
2023-04-02T01:00:51.587Z,71.63965
2023-04-02T01:02:51.670Z,71.05957
2023-04-02T01:04:51.684Z,71.33789
2023-04-02T01:06:51.510Z,71.24219
2023-04-02T01:08:51.555Z,70.58887
2023-04-02T01:10:51.545Z,70.12402
2023-04-02T01:14:07.070Z,70.05566
2023-04-02T01:16:07.008Z,69.97949
2023-04-02T01:18:06.910Z,69.47266
2023-04-02T01:20:06.914Z,68.91406
2023-04-02T01:22:06.881Z,69.06641
2023-04-02T01:24:06.881Z,69.40137
2023-04-02T01:26:06.861Z,69.57422
2023-04-02T01:29:23.343Z,69.34766
2023-04-02T01:31:23.350Z,69.3125
2023-04-02T01:33:23.270Z,69.52246
2023-04-02T01:35:23.295Z,69.65332
2023-04-02T01:37:23.386Z,69.72754
2023-04-02T01:39:23.457Z,69.6084
2023-04-02T01:41:23.343Z,69.72168
2023-04-02T01:44:34.027Z,69.9209
2023-04-02T01:46:33.849Z,69.67676
2023-04-02T01:48:34.151Z,69.91113
2023-04-02T01:50:33.911Z,69.89746
2023-04-02T01:52:33.981Z,69.74805
2023-04-02T01:54:33.988Z,69.8418
2023-04-02T01:56:34.209Z,69.87305
2023-04-02T01:59:36.190Z,69.92285
2023-04-02T02:01:35.990Z,69.91797
2023-04-02T02:03:36.328Z,70.07715
2023-04-02T02:05:36.376Z,70.1084
2023-04-02T02:07:35.843Z,70.25781
2023-04-02T02:09:35.897Z,70.11328
2023-04-02T02:11:35.935Z,70.17773
2023-04-02T02:14:43.600Z,70.30273
2023-04-02T02:16:43.720Z,70.00977
2023-04-02T02:18:43.593Z,70.23828
2023-04-02T02:20:43.517Z,70.02832
2023-04-02T02:22:43.598Z,70.53418
2023-04-02T02:24:43.580Z,70.20605
2023-04-02T02:26:43.608Z,69.95898
2023-04-02T02:29:16.544Z,69.72168
2023-04-02T02:31:16.568Z,70.30176
2023-04-02T02:33:16.664Z,71.09473
2023-04-02T02:35:16.539Z,71.62891
2023-04-02T02:37:16.567Z,71.50391
2023-04-02T02:39:16.532Z,70.98633
2023-04-02T02:41:16.559Z,70.4707
2023-04-02T02:43:16.524Z,70.28711
2023-04-02T02:44:48.672Z,70.61426
2023-04-02T02:46:48.686Z,70.37402
2023-04-02T02:48:48.643Z,69.40332
2023-04-02T02:50:48.631Z,70.04395
2023-04-02T02:52:48.671Z,69.91895
2023-04-02T02:54:48.669Z,70.34668
2023-04-02T02:56:48.729Z,69.93457
2023-04-02T02:59:41.923Z,68.94922
2023-04-02T03:01:41.955Z,69.30957
2023-04-02T03:03:42.252Z,69.66699
2023-04-02T03:05:42.070Z,69.32617
2023-04-02T03:07:41.911Z,69.71387
2023-04-02T03:09:41.879Z,69.76953
2023-04-02T03:11:41.862Z,69.60449
2023-04-02T03:13:41.856Z,69.67773
2023-04-02T03:15:44.024Z,69.96289
2023-04-02T03:17:44.079Z,69.94043
2023-04-02T03:19:44.467Z,69.65527
2023-04-02T03:21:44.170Z,69.65918
2023-04-02T03:23:44.419Z,69.97949
2023-04-02T03:25:44.309Z,69.97266
2023-04-02T03:27:44.384Z,70.54883
2023-04-02T03:30:08.647Z,70.39551
2023-04-02T03:32:08.621Z,70.55664
2023-04-02T03:34:08.751Z,70.65039
2023-04-02T03:36:08.742Z,70.42578
2023-04-02T03:38:08.646Z,70.28906
2023-04-02T03:40:08.640Z,70.03711
2023-04-02T03:42:08.604Z,70.15137
2023-04-02T03:45:49.849Z,70.33984
2023-04-02T03:47:49.929Z,69.5166
2023-04-02T03:49:49.833Z,70.04199
2023-04-02T03:51:49.806Z,70.20508
2023-04-02T03:53:49.898Z,70.17871
2023-04-02T03:55:49.788Z,70.13379
2023-04-02T03:57:49.897Z,70.04785
2023-04-02T04:00:34.473Z,70.12793
2023-04-02T04:02:34.625Z,70.05566
2023-04-02T04:04:34.641Z,70.25684
2023-04-02T04:06:34.461Z,70.29199
2023-04-02T04:08:34.491Z,71.16699
2023-04-02T04:10:34.495Z,70.36621
2023-04-02T04:12:34.488Z,70.55273
2023-04-02T04:15:52.776Z,70.51465
2023-04-02T04:17:52.781Z,70.64453
2023-04-02T04:19:52.749Z,70.19238
2023-04-02T04:21:52.773Z,70.36133
2023-04-02T04:23:52.788Z,70.35059
2023-04-02T04:25:52.785Z,70.45703
2023-04-02T04:27:52.787Z,70.32813
2023-04-02T04:30:42.424Z,70.08887
2023-04-02T04:32:42.588Z,70.39844
2023-04-02T04:34:42.437Z,70.08984
2023-04-02T04:36:42.414Z,70.09082
2023-04-02T04:38:42.449Z,69.82324
2023-04-02T04:40:42.452Z,69.74902
2023-04-02T04:42:42.478Z,69.9209
2023-04-02T04:44:42.436Z,69.95508
2023-04-02T04:46:34.979Z,69.28418
2023-04-02T04:48:36.581Z,69.41504
2023-04-02T04:50:34.914Z,69.14746
2023-04-02T04:52:34.962Z,69.26172
2023-04-02T04:54:34.925Z,69.5127
2023-04-02T04:56:35.022Z,69.09277
2023-04-02T04:58:34.982Z,68.89746
2023-04-02T05:01:46.647Z,68.92676
2023-04-02T05:03:46.476Z,68.83789
2023-04-02T05:05:46.510Z,68.75
2023-04-02T05:07:46.440Z,68.24414
2023-04-02T05:09:46.479Z,68.08691
2023-04-02T05:11:46.506Z,69.0957
2023-04-02T05:13:46.474Z,69.3291
2023-04-02T05:16:46.141Z,68.25684
2023-04-02T05:18:46.052Z,68.4043
2023-04-02T05:20:46.019Z,68.46484
2023-04-02T05:22:46.104Z,68.19824
2023-04-02T05:24:46.097Z,67.44629
2023-04-02T05:26:46.336Z,66.22168
2023-04-02T05:28:46.105Z,64.53613
2023-04-02T05:32:06.920Z,63.09473
2023-04-02T05:34:06.971Z,64.49121
2023-04-02T05:36:07.001Z,63.4209
2023-04-02T05:38:06.902Z,63.2373
2023-04-02T05:40:06.847Z,59.78223
2023-04-02T05:42:06.905Z,62.39746
2023-04-02T05:44:06.948Z,61.16797
2023-04-02T05:47:11.186Z,61.5957
2023-04-02T05:49:11.539Z,62.50781
2023-04-02T05:51:11.304Z,59.73242
2023-04-02T05:53:11.540Z,61.52734
2023-04-02T05:55:11.190Z,62.05957
2023-04-02T05:57:11.212Z,62.45215
2023-04-02T05:59:11.286Z,65.39063
2023-04-02T06:01:46.977Z,64.54102
2023-04-02T06:03:47.432Z,65.13477
2023-04-02T06:05:47.257Z,65.20898
2023-04-02T06:07:47.161Z,64.83496
2023-04-02T06:09:46.975Z,63.3457
2023-04-02T06:11:47.147Z,62.60254
2023-04-02T06:13:47.091Z,63.87891
2023-04-02T06:15:48.199Z,63.11816
2023-04-02T06:17:32.027Z,61.93555
2023-04-02T06:19:31.849Z,62.64453
2023-04-02T06:21:31.638Z,62.06348
2023-04-02T06:23:31.741Z,65.36426
2023-04-02T06:25:31.688Z,66.1377
2023-04-02T06:27:31.730Z,67.15234
2023-04-02T06:29:31.716Z,66.2334
2023-04-02T06:32:40.286Z,65.27734
2023-04-02T06:34:40.024Z,65.86914
2023-04-02T06:36:40.055Z,63.45508
2023-04-02T06:38:40.047Z,61.7832
2023-04-02T06:40:40.094Z,63.31348
2023-04-02T06:42:40.137Z,62.9209
2023-04-02T06:44:40.068Z,64.39355
2023-04-02T06:47:24.874Z,61.6543
2023-04-02T06:49:24.821Z,61.99805
2023-04-02T06:51:24.877Z,62.30859
2023-04-02T06:53:24.805Z,63.52441
2023-04-02T06:55:24.746Z,61.46582
2023-04-02T06:57:24.758Z,62.82813
2023-04-02T06:59:24.692Z,63.55273
2023-04-02T07:02:58.003Z,62.6543
2023-04-02T07:04:58.103Z,61.52051
2023-04-02T07:06:57.938Z,60.29492
2023-04-02T07:08:57.713Z,59.51855
2023-04-02T07:10:57.998Z,60.01172
2023-04-02T07:12:58.010Z,59.69824
2023-04-02T07:14:57.908Z,61.76563
2023-04-02T07:18:19.214Z,62.44141
2023-04-02T07:20:19.121Z,60.07715
2023-04-02T07:22:18.933Z,60.65918
2023-04-02T07:24:19.091Z,60.80469
2023-04-02T07:26:18.962Z,60.36914
2023-04-02T07:28:21.412Z,60.14648
2023-04-02T07:30:18.857Z,61.13184
2023-04-02T07:33:31.869Z,60.3623
2023-04-02T07:35:31.834Z,63.23828
2023-04-02T07:37:31.617Z,60.31738
2023-04-02T07:39:31.598Z,60.44141
2023-04-02T07:41:31.788Z,59.79199
2023-04-02T07:43:31.706Z,62.21289
2023-04-02T07:45:31.703Z,61.03711
2023-04-02T07:48:27.065Z,59.03516
2023-04-02T07:50:27.275Z,59.65723
2023-04-02T07:52:27.435Z,57.92773
2023-04-02T07:54:27.151Z,58.13867
2023-04-02T07:56:27.093Z,57.58594
2023-04-02T07:58:27.035Z,60.97461
2023-04-02T08:00:27.004Z,62.08105
2023-04-02T08:03:15.862Z,62.34277
2023-04-02T08:05:15.591Z,61.60352
2023-04-02T08:07:15.614Z,62.11133
2023-04-02T08:09:15.555Z,60.02539
2023-04-02T08:11:15.566Z,56.65723
2023-04-02T08:13:15.619Z,55.52734
2023-04-02T08:15:15.657Z,52.78613
2023-04-02T08:18:49.405Z,51.9707
2023-04-02T08:20:49.683Z,52.24805
2023-04-02T08:22:49.514Z,51.34668
2023-04-02T08:24:49.616Z,49.38086
2023-04-02T08:26:49.507Z,50.39453
2023-04-02T08:28:49.468Z,48.44336
2023-04-02T08:30:49.490Z,49.31543
2023-04-02T08:33:25.911Z,46.7002
2023-04-02T08:35:25.870Z,47.2041
2023-04-02T08:37:26.282Z,45.6377
2023-04-02T08:39:25.908Z,45.43945
2023-04-02T08:41:26.132Z,44.88867
2023-04-02T08:43:26.035Z,44.6123
2023-04-02T08:45:26.255Z,45.23828
2023-04-02T08:47:26.012Z,45.39746
2023-04-02T08:48:46.906Z,48.59766
2023-04-02T08:50:47.192Z,44.26953
2023-04-02T08:52:46.784Z,42.87988
2023-04-02T08:54:46.729Z,43.20703
2023-04-02T08:56:46.780Z,44.88672
2023-04-02T08:58:46.838Z,46.21875
2023-04-02T09:00:46.851Z,44.96875
2023-04-02T09:04:30.583Z,43.98242
2023-04-02T09:06:30.443Z,42.9502
2023-04-02T09:08:30.461Z,45.35742
2023-04-02T09:10:30.519Z,43.24707
2023-04-02T09:12:30.458Z,43.06641
2023-04-02T09:14:30.403Z,43.30469
2023-04-02T09:16:30.562Z,42.53906
2023-04-02T09:19:30.199Z,46.0498
2023-04-02T09:21:30.151Z,43.69727
2023-04-02T09:23:30.179Z,42.42285
2023-04-02T09:25:30.165Z,43.32031
2023-04-02T09:27:30.283Z,42.42773
2023-04-02T09:29:30.269Z,42.74219
2023-04-02T09:31:30.382Z,40.69629
2023-04-02T09:34:39.524Z,41.49902
2023-04-02T09:36:39.820Z,43.66406
2023-04-02T09:38:39.857Z,41.8125
2023-04-02T09:40:39.526Z,42.35742
2023-04-02T09:42:39.510Z,44.31641
2023-04-02T09:44:39.527Z,41.59961
2023-04-02T09:46:39.629Z,41.63086
2023-04-02T09:50:01.836Z,41.95117
2023-04-02T09:52:02.051Z,41.29199
2023-04-02T09:54:02.041Z,40.52344
2023-04-02T09:56:01.892Z,40.4873
2023-04-02T09:58:02.356Z,40.7041
2023-04-02T10:00:01.902Z,40.35938
2023-04-02T10:02:01.871Z,40.53516
2023-04-02T10:04:38.810Z,41.0127
2023-04-02T10:06:38.677Z,40.87891
2023-04-02T10:08:38.688Z,38.65527
2023-04-02T10:10:38.621Z,40.70215
2023-04-02T10:12:38.705Z,40.875
2023-04-02T10:14:38.584Z,40.34375
2023-04-02T10:16:38.666Z,39.88184
2023-04-02T10:20:27.022Z,38.61133
2023-04-02T10:22:26.895Z,39.75879
2023-04-02T10:24:27.003Z,39.63574
2023-04-02T10:26:26.915Z,39.97266
2023-04-02T10:28:26.983Z,41.33398
2023-04-02T10:30:27.015Z,39.44824
2023-04-02T10:32:27.323Z,39.66895
2023-04-02T10:35:08.786Z,38.9541
2023-04-02T10:37:08.946Z,37.95605
2023-04-02T10:39:08.749Z,40.06445
2023-04-02T10:41:08.745Z,39.53711
2023-04-02T10:43:08.800Z,38.32715
2023-04-02T10:45:08.738Z,37.18359
2023-04-02T10:47:08.871Z,37.06348
2023-04-02T10:50:02.443Z,35.72461
2023-04-02T10:52:02.644Z,36.90332
2023-04-02T10:54:02.700Z,37.68066
2023-04-02T10:56:02.573Z,39.0791
2023-04-02T10:58:02.574Z,37.20605
2023-04-02T11:00:02.562Z,37.375
2023-04-02T11:02:02.711Z,34.63281
2023-04-02T11:05:12.226Z,34.53613
2023-04-02T11:07:15.199Z,35.59082
2023-04-02T11:09:12.026Z,36.17383
2023-04-02T11:11:11.926Z,36.46191
2023-04-02T11:13:11.911Z,36.43359
2023-04-02T11:15:11.894Z,36.22852
2023-04-02T11:17:11.915Z,36.70508
2023-04-02T11:19:11.900Z,37.56934
2023-04-02T11:21:07.583Z,37.80957
2023-04-02T11:23:07.567Z,37.15527
2023-04-02T11:25:07.630Z,39.70313
2023-04-02T11:27:07.594Z,40.43652
2023-04-02T11:29:07.611Z,38.85547
2023-04-02T11:31:07.654Z,40.04199
2023-04-02T11:33:07.740Z,38.72266
2023-04-02T11:35:40.514Z,37.31934
2023-04-02T11:37:40.090Z,38.26758
2023-04-02T11:39:40.152Z,36.71191
2023-04-02T11:41:40.126Z,35.81641
2023-04-02T11:43:39.811Z,34.54785
2023-04-02T11:45:52.522Z,34.90723
2023-04-02T11:47:39.969Z,34.76465
2023-04-02T11:50:44.576Z,35.5293
2023-04-02T11:52:44.750Z,35.16113
2023-04-02T11:54:44.562Z,35.25781
2023-04-02T11:56:44.482Z,37.80078
2023-04-02T11:58:44.579Z,38.46484
2023-04-02T12:00:44.797Z,36.81543
2023-04-02T12:02:45.947Z,36.86719
2023-04-02T12:05:49.494Z,36.02246
2023-04-02T12:07:49.480Z,35.96582
2023-04-02T12:09:49.471Z,35.87598
2023-04-02T12:11:52.294Z,35.46582
2023-04-02T12:13:49.514Z,35.74219
2023-04-02T12:15:49.673Z,36.84961
2023-04-02T12:17:49.601Z,36.56543
2023-04-02T12:19:49.465Z,36.15527
2023-04-02T12:20:56.394Z,37.09766
2023-04-02T12:22:56.377Z,36.86523
2023-04-02T12:24:56.288Z,35.66602
2023-04-02T12:26:56.464Z,33.3623
2023-04-02T12:28:56.382Z,35.41211
2023-04-02T12:30:56.517Z,34.77148
2023-04-02T12:32:56.358Z,33.19141
2023-04-02T12:34:56.318Z,34.34082
2023-04-02T12:36:32.293Z,35.25586
2023-04-02T12:38:32.432Z,35.34766
2023-04-02T12:40:32.305Z,34.73535
2023-04-02T12:42:32.400Z,33.94824
2023-04-02T12:44:32.361Z,33.41016
2023-04-02T12:46:32.503Z,33.98438
2023-04-02T12:48:32.673Z,33.8252
2023-04-02T12:52:04.831Z,34.55957
2023-04-02T12:54:04.871Z,34.12695
2023-04-02T12:56:04.930Z,32.87109
2023-04-02T12:58:04.922Z,35.62012
2023-04-02T13:00:05.029Z,33.80957
2023-04-02T13:02:05.360Z,34.96094
2023-04-02T13:04:04.937Z,34.1416
2023-04-02T13:07:05.209Z,35.1123
2023-04-02T13:09:05.134Z,33.75586
2023-04-02T13:11:05.198Z,36.37207
2023-04-02T13:13:05.003Z,35.89941
2023-04-02T13:15:05.227Z,35.80078
2023-04-02T13:17:05.151Z,34.0957
2023-04-02T13:19:05.136Z,34.24609
2023-04-02T13:22:05.945Z,33.78613
2023-04-02T13:24:05.856Z,35.77051
2023-04-02T13:26:06.039Z,35.63867
2023-04-02T13:28:05.915Z,35.98535
2023-04-02T13:30:05.974Z,33.70215
2023-04-02T13:32:05.908Z,35.29102
2023-04-02T13:34:06.063Z,34.12988
2023-04-02T13:36:58.458Z,34.85938
2023-04-02T13:38:58.436Z,35.17188
2023-04-02T13:40:58.556Z,36.1543
2023-04-02T13:42:58.566Z,34.18262
2023-04-02T13:44:58.556Z,34.00098
2023-04-02T13:46:58.609Z,35.35645
2023-04-02T13:48:58.373Z,33.38672
2023-04-02T13:52:10.798Z,35.73535
2023-04-02T13:54:10.503Z,36.44336
2023-04-02T13:56:10.570Z,34.99512
2023-04-02T13:58:10.506Z,35.41211
2023-04-02T14:00:10.470Z,35.26367
2023-04-02T14:02:10.551Z,33.41211
2023-04-02T14:04:10.601Z,34.22949
2023-04-02T14:07:55.493Z,34.01855
2023-04-02T14:09:55.471Z,32.41016
2023-04-02T14:11:55.429Z,32.08301
2023-04-02T14:13:55.444Z,32.76953
2023-04-02T14:15:55.473Z,32.41602
2023-04-02T14:17:55.593Z,33.29199
2023-04-02T14:19:55.468Z,33.76563
2023-04-02T14:22:59.572Z,33.03223
2023-04-02T14:24:59.544Z,33.34668
2023-04-02T14:26:59.650Z,33.02148
2023-04-02T14:28:59.836Z,33.38477
2023-04-02T14:30:59.758Z,33.58887
2023-04-02T14:32:59.858Z,33.72852
2023-04-02T14:34:59.614Z,32.22266
2023-04-02T14:38:22.422Z,32.41797
2023-04-02T14:40:22.375Z,31.13281
2023-04-02T14:42:22.429Z,32.66992
2023-04-02T14:44:22.261Z,32.73242
2023-04-02T14:46:22.386Z,32.22852
2023-04-02T14:48:22.227Z,32.2041
2023-04-02T14:50:22.260Z,31.83887
2023-04-02T14:53:09.388Z,31.96191
2023-04-02T14:55:09.407Z,31.38867
2023-04-02T14:57:09.488Z,31.67188
2023-04-02T14:59:09.396Z,32.56934
2023-04-02T15:01:09.658Z,33.14746
2023-04-02T15:03:09.575Z,32.7002
2023-04-02T15:05:09.417Z,33.58691
2023-04-02T15:08:03.553Z,35.5293
2023-04-02T15:10:03.453Z,35.47656
2023-04-02T15:12:03.410Z,35.15723
2023-04-02T15:14:03.496Z,34.53711
2023-04-02T15:16:03.662Z,35.81641
2023-04-02T15:18:03.653Z,35.64063
2023-04-02T15:20:03.521Z,35.15918
2023-04-02T15:23:41.196Z,36.81641
2023-04-02T15:25:41.084Z,34.50391
2023-04-02T15:27:41.020Z,35.36328
2023-04-02T15:29:41.039Z,35.4248
2023-04-02T15:31:41.080Z,35.74414
2023-04-02T15:33:41.300Z,37.56738
2023-04-02T15:35:41.601Z,36.99707
2023-04-02T15:38:25.191Z,37.20215
2023-04-02T15:40:24.876Z,37.36133
2023-04-02T15:42:27.382Z,37.22656
2023-04-02T15:44:24.927Z,37.77637
2023-04-02T15:46:25.107Z,38.47363
2023-04-02T15:48:24.895Z,37.92383
2023-04-02T15:50:24.694Z,39.16895
2023-04-02T15:54:00.586Z,39.21289
2023-04-02T15:56:00.634Z,39.8252
2023-04-02T15:58:00.463Z,40.24316
2023-04-02T16:00:00.520Z,40.40234
2023-04-02T16:02:00.404Z,41.12793
2023-04-02T16:04:00.639Z,41.66309
2023-04-02T16:06:00.417Z,42.12305
2023-04-02T16:09:17.650Z,42.57813
2023-04-02T16:11:17.612Z,42.28418
2023-04-02T16:13:17.368Z,42.46973
2023-04-02T16:15:17.551Z,42.16699
2023-04-02T16:17:25.768Z,42.16504
2023-04-02T16:19:17.508Z,42.58496
2023-04-02T16:21:17.836Z,42.81152
2023-04-02T16:24:04.568Z,43.23145
2023-04-02T16:26:04.531Z,43.72754
2023-04-02T16:28:04.473Z,44.13379
2023-04-02T16:30:04.380Z,44.02148
2023-04-02T16:32:04.346Z,43.83984
2023-04-02T16:34:04.332Z,43.79199
2023-04-02T16:36:04.552Z,43.9248
2023-04-02T16:38:55.200Z,44.1123
2023-04-02T16:41:08.642Z,44.4668
2023-04-02T16:42:55.339Z,44.35742
2023-04-02T16:44:55.323Z,44.62793
2023-04-02T16:46:55.102Z,45.07324
2023-04-02T16:48:55.159Z,45.11133
2023-04-02T16:50:55.333Z,45.39355
2023-04-02T16:54:10.543Z,45.80859
2023-04-02T16:56:10.524Z,45.96289
2023-04-02T16:58:10.554Z,46.02246
2023-04-02T17:00:10.455Z,45.3623
2023-04-02T17:02:10.564Z,45.60156
2023-04-02T17:04:10.661Z,45.65234
2023-04-02T17:06:10.427Z,45.46973
2023-04-02T17:09:30.147Z,45.36914
2023-04-02T17:11:29.986Z,45.91406
2023-04-02T17:13:29.993Z,46.43262
2023-04-02T17:15:30.003Z,46.48926
2023-04-02T17:17:29.961Z,47.1543
2023-04-02T17:19:29.990Z,46.4668
2023-04-02T17:21:29.985Z,46.46484
2023-04-02T17:24:29.666Z,46.68555
2023-04-02T17:26:29.792Z,46.6875
2023-04-02T17:28:29.890Z,47.01172
2023-04-02T17:30:30.047Z,47.22266
2023-04-02T17:32:30.263Z,46.94434
2023-04-02T17:34:29.796Z,48.38867
2023-04-02T17:36:29.804Z,48.06348
2023-04-02T17:39:59.799Z,48.31055
2023-04-02T17:41:59.644Z,48.56348
2023-04-02T17:43:59.833Z,48.67773
2023-04-02T17:46:04.079Z,48.25879
2023-04-02T17:47:59.801Z,48.01953
2023-04-02T17:50:02.104Z,48.78809
2023-04-02T17:51:59.721Z,49.27246
2023-04-02T17:54:37.193Z,49.18262
2023-04-02T17:56:38.733Z,49.79688
2023-04-02T17:58:37.176Z,49.69629
2023-04-02T18:00:37.466Z,49.83398
2023-04-02T18:02:37.241Z,50.13281
2023-04-02T18:04:37.201Z,50.37402
2023-04-02T18:06:37.616Z,51.13574
2023-04-02T18:08:37.172Z,50.51465
2023-04-02T18:09:53.456Z,50.45605
2023-04-02T18:11:53.317Z,50.08887
2023-04-02T18:13:53.288Z,50.66211
2023-04-02T18:15:53.242Z,51.03125
2023-04-02T18:17:53.928Z,50.7998
2023-04-02T18:19:56.593Z,51.25488
2023-04-02T18:21:53.324Z,49.93457
2023-04-02T18:23:53.367Z,50.44531
2023-04-02T18:25:01.578Z,49.97266
2023-04-02T18:27:02.025Z,50.00098
2023-04-02T18:29:01.538Z,50.21875
2023-04-02T18:31:01.612Z,49.61035
2023-04-02T18:33:01.728Z,50.03223
2023-04-02T18:35:01.595Z,49.5918
2023-04-02T18:37:01.516Z,50.62207
2023-04-02T18:39:01.521Z,51.05371
2023-04-02T18:40:26.667Z,50.64355
2023-04-02T18:42:26.628Z,50.2373
2023-04-02T18:44:26.786Z,49.59375
2023-04-02T18:46:26.771Z,50.09863
2023-04-02T18:48:26.750Z,50.38477
2023-04-02T18:50:26.726Z,50.77051
2023-04-02T18:52:26.766Z,50.99902
2023-04-02T18:55:26.776Z,50.29395
2023-04-02T18:57:26.794Z,50.77344
2023-04-02T18:59:26.756Z,51.14063
2023-04-02T19:01:26.832Z,51.01563
2023-04-02T19:03:27.030Z,49.60156
2023-04-02T19:05:27.021Z,50.90039
2023-04-02T19:07:27.717Z,51.08301
2023-04-02T19:11:12.661Z,51.52734
2023-04-02T19:13:12.591Z,51.85059
2023-04-02T19:15:12.556Z,51.86035
2023-04-02T19:17:12.444Z,51.68652
2023-04-02T19:19:12.665Z,51.73145
2023-04-02T19:21:13.048Z,51.05371
2023-04-02T19:23:12.528Z,51.71875
2023-04-02T19:26:03.618Z,52.24707
2023-04-02T19:28:03.762Z,51.63867
2023-04-02T19:30:03.809Z,51.72461
2023-04-02T19:32:03.853Z,51.51953
2023-04-02T19:34:03.755Z,51.99707
2023-04-02T19:36:03.788Z,52.00488
2023-04-02T19:38:03.771Z,51.99316
2023-04-02T19:41:17.200Z,52.59961
2023-04-02T19:43:17.268Z,52.54102
2023-04-02T19:45:17.482Z,52.32422
2023-04-02T19:47:17.497Z,52.66016
2023-04-02T19:49:17.271Z,52.62891
2023-04-02T19:51:17.217Z,52.67773
2023-04-02T19:53:17.423Z,52.55762
2023-04-02T19:56:05.966Z,52.70605
2023-04-02T19:58:19.458Z,52.77832
2023-04-02T20:00:05.979Z,52.93945
2023-04-02T20:02:05.935Z,53.87305
2023-04-02T20:04:05.949Z,52.72852
2023-04-02T20:06:05.973Z,52.87695
2023-04-02T20:08:06.192Z,52.84277
2023-04-02T20:11:02.253Z,53.44922
2023-04-02T20:13:02.240Z,52.87695
2023-04-02T20:15:02.287Z,53.46973
2023-04-02T20:17:02.340Z,53.39355
2023-04-02T20:19:02.411Z,53.22656
2023-04-02T20:21:02.509Z,53.53516
2023-04-02T20:23:02.472Z,53.6582
2023-04-02T20:25:02.608Z,53.25879
2023-04-02T20:26:29.870Z,53.7627
2023-04-02T20:28:29.774Z,53.49316
2023-04-02T20:30:29.763Z,53.98145
2023-04-02T20:32:30.073Z,53.7207
2023-04-02T20:34:30.102Z,52.98438
2023-04-02T20:36:29.947Z,53.96777
2023-04-02T20:38:32.158Z,53.23145
2023-04-02T20:41:40.837Z,53.47559
2023-04-02T20:43:41.112Z,53.79199
2023-04-02T20:45:40.733Z,53.72754
2023-04-02T20:47:40.924Z,53.22656
2023-04-02T20:49:40.743Z,53.75391
2023-04-02T20:51:40.913Z,53.93262
2023-04-02T20:53:40.701Z,53.7168
2023-04-02T20:57:14.670Z,53.38086
2023-04-02T20:59:14.547Z,54.25195
2023-04-02T21:01:14.702Z,53.76465
2023-04-02T21:03:14.448Z,54.1748
2023-04-02T21:05:14.926Z,53.78418
2023-04-02T21:07:14.417Z,53.50586
2023-04-02T21:09:14.869Z,54.1582
2023-04-02T21:12:06.851Z,54.24609
2023-04-02T21:14:06.962Z,54.42773
2023-04-02T21:16:07.048Z,54.11328
2023-04-02T21:18:06.957Z,54.02637
2023-04-02T21:20:06.911Z,53.84766
2023-04-02T21:22:06.842Z,53.92383
2023-04-02T21:24:06.863Z,54.0127
2023-04-02T21:27:54.425Z,54.38867
2023-04-02T21:29:54.658Z,54.03516
2023-04-02T21:31:55.002Z,53.92285
2023-04-02T21:33:54.562Z,54.23047
2023-04-02T21:35:54.536Z,54.45898
2023-04-02T21:37:54.575Z,54.03418
2023-04-02T21:39:54.482Z,54.25586
2023-04-02T21:42:55.733Z,54.1416
2023-04-02T21:44:55.638Z,54.57324
2023-04-02T21:46:55.722Z,54.4541
2023-04-02T21:48:55.541Z,54.32324
2023-04-02T21:50:55.594Z,55.4502
2023-04-02T21:52:55.681Z,54.81152
2023-04-02T21:54:55.732Z,55.24902
2023-04-02T21:58:07.349Z,55.13477
2023-04-02T22:00:07.352Z,54.97266
2023-04-02T22:02:07.401Z,55.07617
2023-04-02T22:04:07.360Z,55.24512
2023-04-02T22:06:07.252Z,55.66602
2023-04-02T22:08:07.133Z,55.28809
2023-04-02T22:10:07.146Z,55.6543
2023-04-02T22:12:52.929Z,54.82813
2023-04-02T22:14:52.995Z,55.08203
2023-04-02T22:16:53.051Z,55.47461
2023-04-02T22:18:52.989Z,54.86523
2023-04-02T22:20:53.159Z,54.60742
2023-04-02T22:22:52.935Z,54.88184
2023-04-02T22:24:53.254Z,55.22461
2023-04-02T22:28:05.809Z,55.49414
2023-04-02T22:30:05.922Z,55.70508
2023-04-02T22:32:05.734Z,55.14648
2023-04-02T22:34:05.784Z,55.50391
2023-04-02T22:36:05.852Z,55.60645
2023-04-02T22:38:05.751Z,55.9248
2023-04-02T22:40:05.776Z,56.01758
2023-04-02T22:43:43.936Z,55.68848
2023-04-02T22:45:43.917Z,55.91016
2023-04-02T22:47:43.856Z,55.40039
2023-04-02T22:49:43.876Z,55.91211
2023-04-02T22:51:45.592Z,55.89844
2023-04-02T22:53:43.833Z,55.98242
2023-04-02T22:55:43.843Z,56.22461
2023-04-02T22:58:01.274Z,56.35059
2023-04-02T23:00:01.286Z,56.3252
2023-04-02T23:02:01.478Z,56.50391
2023-04-02T23:04:01.365Z,56.75391
2023-04-02T23:06:01.277Z,56.9082
2023-04-02T23:08:01.241Z,56.80566
2023-04-02T23:10:04.580Z,56.92578
2023-04-02T23:12:01.299Z,57.66992
2023-04-02T23:14:06.270Z,56.9541
2023-04-02T23:16:06.412Z,57.1709
2023-04-02T23:18:06.362Z,57.25098
2023-04-02T23:20:06.278Z,57.66797
2023-04-02T23:22:06.296Z,57.64648
2023-04-02T23:24:06.306Z,58.22949
2023-04-02T23:26:06.366Z,58.10059
2023-04-02T23:28:33.329Z,57.74316
2023-04-02T23:30:33.237Z,57.95898
2023-04-02T23:32:33.391Z,58.50391
2023-04-02T23:34:33.306Z,58.48438
2023-04-02T23:36:33.260Z,58.36328
2023-04-02T23:38:33.327Z,58.27148
2023-04-02T23:40:33.318Z,57.88672
2023-04-02T23:44:14.657Z,59.19531
2023-04-02T23:46:14.566Z,58.59668
2023-04-02T23:48:14.500Z,59.33008
2023-04-02T23:50:14.472Z,59.46094
2023-04-02T23:52:14.481Z,59.90234
2023-04-02T23:54:14.523Z,59.34082
2023-04-02T23:56:14.453Z,59.15039
2023-04-02T23:59:31.692Z,59.05762
